sensor_id;sensor_type;location;lat;lon;timestamp;P1;durP1;ratioP1;P2;durP2;ratioP2
14984;SDS011;7588;62.368;25.902;2023-07-13T00:02:22;125.10;;;120.20;;
14984;SDS011;7588;62.368;25.902;2023-07-13T00:04:49;135.63;;;130.33;;
14984;SDS011;7588;62.368;25.902;2023-07-13T00:07:15;123.30;;;118.37;;
14984;SDS011;7588;62.368;25.902;2023-07-13T00:09:45;133.57;;;128.37;;
14984;SDS011;7588;62.368;25.902;2023-07-13T00:12:31;129.00;;;123.90;;
14984;SDS011;7588;62.368;25.902;2023-07-13T00:15:03;139.67;;;134.07;;
14984;SDS011;7588;62.368;25.902;2023-07-13T00:17:32;133.90;;;128.60;;
14984;SDS011;7588;62.368;25.902;2023-07-13T00:19:58;139.23;;;133.77;;
14984;SDS011;7588;62.368;25.902;2023-07-13T00:22:24;132.90;;;127.60;;
14984;SDS011;7588;62.368;25.902;2023-07-13T00:24:53;138.60;;;132.93;;
14984;SDS011;7588;62.368;25.902;2023-07-13T00:27:21;127.07;;;122.07;;
14984;SDS011;7588;62.368;25.902;2023-07-13T00:29:48;136.33;;;131.07;;
14984;SDS011;7588;62.368;25.902;2023-07-13T00:32:13;129.23;;;124.17;;
14984;SDS011;7588;62.368;25.902;2023-07-13T00:34:39;129.87;;;124.67;;
14984;SDS011;7588;62.368;25.902;2023-07-13T00:37:06;132.10;;;126.93;;
14984;SDS011;7588;62.368;25.902;2023-07-13T00:39:35;134.77;;;129.47;;
14984;SDS011;7588;62.368;25.902;2023-07-13T00:42:01;137.60;;;132.07;;
14984;SDS011;7588;62.368;25.902;2023-07-13T00:44:27;127.33;;;122.00;;
14984;SDS011;7588;62.368;25.902;2023-07-13T00:46:53;128.90;;;123.70;;
14984;SDS011;7588;62.368;25.902;2023-07-13T00:49:21;135.67;;;130.23;;
14984;SDS011;7588;62.368;25.902;2023-07-13T00:51:50;125.13;;;120.23;;
14984;SDS011;7588;62.368;25.902;2023-07-13T00:54:24;124.57;;;119.63;;
14984;SDS011;7588;62.368;25.902;2023-07-13T00:56:53;132.67;;;127.43;;
14984;SDS011;7588;62.368;25.902;2023-07-13T00:59:23;135.13;;;129.73;;
14984;SDS011;7588;62.368;25.902;2023-07-13T01:01:50;128.90;;;123.77;;
14984;SDS011;7588;62.368;25.902;2023-07-13T01:04:16;124.67;;;119.53;;
14984;SDS011;7588;62.368;25.902;2023-07-13T01:06:43;136.83;;;131.27;;
14984;SDS011;7588;62.368;25.902;2023-07-13T01:09:10;137.83;;;132.37;;
14984;SDS011;7588;62.368;25.902;2023-07-13T01:11:37;137.30;;;131.80;;
14984;SDS011;7588;62.368;25.902;2023-07-13T01:14:03;128.20;;;122.93;;
14984;SDS011;7588;62.368;25.902;2023-07-13T01:16:33;134.57;;;129.17;;
14984;SDS011;7588;62.368;25.902;2023-07-13T01:19:00;137.77;;;132.17;;
14984;SDS011;7588;62.368;25.902;2023-07-13T01:21:29;141.30;;;135.60;;
14984;SDS011;7588;62.368;25.902;2023-07-13T01:23:57;131.80;;;126.27;;
14984;SDS011;7588;62.368;25.902;2023-07-13T01:26:23;133.07;;;127.67;;
14984;SDS011;7588;62.368;25.902;2023-07-13T01:28:49;136.43;;;130.70;;
14984;SDS011;7588;62.368;25.902;2023-07-13T01:31:15;136.77;;;131.30;;
14984;SDS011;7588;62.368;25.902;2023-07-13T01:33:41;129.17;;;123.87;;
14984;SDS011;7588;62.368;25.902;2023-07-13T01:36:07;134.90;;;129.50;;
14984;SDS011;7588;62.368;25.902;2023-07-13T01:38:34;136.97;;;131.23;;
14984;SDS011;7588;62.368;25.902;2023-07-13T01:41:01;131.03;;;125.70;;
14984;SDS011;7588;62.368;25.902;2023-07-13T01:43:27;135.13;;;129.40;;
14984;SDS011;7588;62.368;25.902;2023-07-13T01:45:53;135.33;;;129.47;;
14984;SDS011;7588;62.368;25.902;2023-07-13T01:48:19;148.90;;;143.00;;
14984;SDS011;7588;62.368;25.902;2023-07-13T01:50:45;145.93;;;140.00;;
14984;SDS011;7588;62.368;25.902;2023-07-13T01:53:12;143.40;;;137.40;;
14984;SDS011;7588;62.368;25.902;2023-07-13T01:55:38;148.07;;;141.93;;
14984;SDS011;7588;62.368;25.902;2023-07-13T01:58:04;149.03;;;143.10;;
14984;SDS011;7588;62.368;25.902;2023-07-13T02:00:30;145.57;;;139.63;;
14984;SDS011;7588;62.368;25.902;2023-07-13T02:02:56;133.30;;;128.00;;
14984;SDS011;7588;62.368;25.902;2023-07-13T02:05:22;131.37;;;126.10;;
14984;SDS011;7588;62.368;25.902;2023-07-13T02:07:48;135.70;;;130.37;;
14984;SDS011;7588;62.368;25.902;2023-07-13T02:10:14;137.13;;;131.73;;
14984;SDS011;7588;62.368;25.902;2023-07-13T02:12:41;130.93;;;125.67;;
14984;SDS011;7588;62.368;25.902;2023-07-13T02:15:07;141.40;;;135.73;;
14984;SDS011;7588;62.368;25.902;2023-07-13T02:17:34;149.00;;;143.20;;
14984;SDS011;7588;62.368;25.902;2023-07-13T02:20:01;150.33;;;144.33;;
14984;SDS011;7588;62.368;25.902;2023-07-13T02:22:27;148.90;;;143.03;;
14984;SDS011;7588;62.368;25.902;2023-07-13T02:24:53;146.13;;;140.17;;
14984;SDS011;7588;62.368;25.902;2023-07-13T02:27:19;143.37;;;137.53;;
14984;SDS011;7588;62.368;25.902;2023-07-13T02:29:45;138.50;;;133.13;;
14984;SDS011;7588;62.368;25.902;2023-07-13T02:32:10;145.97;;;140.33;;
14984;SDS011;7588;62.368;25.902;2023-07-13T02:34:36;143.10;;;137.50;;
14984;SDS011;7588;62.368;25.902;2023-07-13T02:37:02;143.57;;;137.93;;
14984;SDS011;7588;62.368;25.902;2023-07-13T02:39:28;140.40;;;134.80;;
14984;SDS011;7588;62.368;25.902;2023-07-13T02:41:54;139.17;;;133.63;;
14984;SDS011;7588;62.368;25.902;2023-07-13T02:44:19;145.00;;;139.37;;
14984;SDS011;7588;62.368;25.902;2023-07-13T02:46:45;137.97;;;132.67;;
14984;SDS011;7588;62.368;25.902;2023-07-13T02:49:11;141.50;;;136.13;;
14984;SDS011;7588;62.368;25.902;2023-07-13T02:51:37;159.87;;;153.63;;
14984;SDS011;7588;62.368;25.902;2023-07-13T02:54:03;142.93;;;137.30;;
14984;SDS011;7588;62.368;25.902;2023-07-13T02:56:30;147.23;;;141.07;;
14984;SDS011;7588;62.368;25.902;2023-07-13T02:58:57;149.47;;;143.57;;
14984;SDS011;7588;62.368;25.902;2023-07-13T03:01:23;152.97;;;147.07;;
14984;SDS011;7588;62.368;25.902;2023-07-13T03:03:49;148.03;;;142.37;;
14984;SDS011;7588;62.368;25.902;2023-07-13T03:06:16;150.03;;;143.93;;
14984;SDS011;7588;62.368;25.902;2023-07-13T03:08:43;147.83;;;142.10;;
14984;SDS011;7588;62.368;25.902;2023-07-13T03:11:13;154.87;;;148.73;;
14984;SDS011;7588;62.368;25.902;2023-07-13T03:13:41;161.03;;;154.67;;
14984;SDS011;7588;62.368;25.902;2023-07-13T03:16:08;150.90;;;144.97;;
14984;SDS011;7588;62.368;25.902;2023-07-13T03:18:35;151.10;;;145.23;;
14984;SDS011;7588;62.368;25.902;2023-07-13T03:21:01;155.60;;;149.50;;
14984;SDS011;7588;62.368;25.902;2023-07-13T03:23:27;149.27;;;143.30;;
14984;SDS011;7588;62.368;25.902;2023-07-13T03:26:03;146.83;;;141.07;;
14984;SDS011;7588;62.368;25.902;2023-07-13T03:28:34;150.10;;;144.30;;
14984;SDS011;7588;62.368;25.902;2023-07-13T03:31:05;159.90;;;153.70;;
14984;SDS011;7588;62.368;25.902;2023-07-13T03:33:33;152.13;;;146.10;;
14984;SDS011;7588;62.368;25.902;2023-07-13T03:35:58;157.77;;;151.57;;
14984;SDS011;7588;62.368;25.902;2023-07-13T03:38:25;155.47;;;149.17;;
14984;SDS011;7588;62.368;25.902;2023-07-13T03:40:51;148.07;;;142.13;;
14984;SDS011;7588;62.368;25.902;2023-07-13T03:43:17;157.70;;;150.87;;
14984;SDS011;7588;62.368;25.902;2023-07-13T03:45:43;152.50;;;146.20;;
14984;SDS011;7588;62.368;25.902;2023-07-13T03:48:09;166.00;;;158.90;;
14984;SDS011;7588;62.368;25.902;2023-07-13T03:50:34;142.23;;;136.20;;
14984;SDS011;7588;62.368;25.902;2023-07-13T03:53:00;151.40;;;144.77;;
14984;SDS011;7588;62.368;25.902;2023-07-13T03:55:26;138.20;;;132.53;;
14984;SDS011;7588;62.368;25.902;2023-07-13T03:58:23;144.10;;;138.03;;
14984;SDS011;7588;62.368;25.902;2023-07-13T04:00:49;132.83;;;127.23;;
14984;SDS011;7588;62.368;25.902;2023-07-13T04:03:15;119.70;;;114.53;;
14984;SDS011;7588;62.368;25.902;2023-07-13T04:05:41;129.73;;;124.28;;
14984;SDS011;7588;62.368;25.902;2023-07-13T04:08:07;121.90;;;116.93;;
14984;SDS011;7588;62.368;25.902;2023-07-13T04:10:33;123.68;;;118.60;;
14984;SDS011;7588;62.368;25.902;2023-07-13T04:12:58;122.45;;;117.50;;
14984;SDS011;7588;62.368;25.902;2023-07-13T04:15:24;118.13;;;113.13;;
14984;SDS011;7588;62.368;25.902;2023-07-13T04:17:50;123.65;;;118.38;;
14984;SDS011;7588;62.368;25.902;2023-07-13T04:20:15;104.13;;;99.65;;
14984;SDS011;7588;62.368;25.902;2023-07-13T04:22:41;114.82;;;110.13;;
14984;SDS011;7588;62.368;25.902;2023-07-13T04:25:07;116.97;;;112.28;;
14984;SDS011;7588;62.368;25.902;2023-07-13T04:27:33;106.57;;;102.18;;
14984;SDS011;7588;62.368;25.902;2023-07-13T04:29:59;121.40;;;116.40;;
14984;SDS011;7588;62.368;25.902;2023-07-13T04:32:24;122.13;;;117.15;;
14984;SDS011;7588;62.368;25.902;2023-07-13T04:34:50;116.28;;;111.50;;
14984;SDS011;7588;62.368;25.902;2023-07-13T04:37:18;116.38;;;111.55;;
14984;SDS011;7588;62.368;25.902;2023-07-13T04:39:45;110.30;;;105.70;;
14984;SDS011;7588;62.368;25.902;2023-07-13T04:42:11;111.00;;;106.53;;
14984;SDS011;7588;62.368;25.902;2023-07-13T04:44:36;106.38;;;102.32;;
14984;SDS011;7588;62.368;25.902;2023-07-13T04:47:02;115.10;;;110.45;;
14984;SDS011;7588;62.368;25.902;2023-07-13T04:49:28;102.43;;;98.47;;
14984;SDS011;7588;62.368;25.902;2023-07-13T04:51:54;101.63;;;97.60;;
14984;SDS011;7588;62.368;25.902;2023-07-13T04:54:20;102.35;;;98.15;;
14984;SDS011;7588;62.368;25.902;2023-07-13T04:56:47;84.93;;;81.63;;
14984;SDS011;7588;62.368;25.902;2023-07-13T04:59:13;85.18;;;81.82;;
14984;SDS011;7588;62.368;25.902;2023-07-13T05:01:38;83.55;;;80.07;;
14984;SDS011;7588;62.368;25.902;2023-07-13T05:04:05;69.90;;;67.05;;
14984;SDS011;7588;62.368;25.902;2023-07-13T05:06:31;63.28;;;60.75;;
14984;SDS011;7588;62.368;25.902;2023-07-13T05:08:57;67.43;;;64.68;;
14984;SDS011;7588;62.368;25.902;2023-07-13T05:11:23;66.55;;;63.85;;
14984;SDS011;7588;62.368;25.902;2023-07-13T05:13:49;70.10;;;67.18;;
14984;SDS011;7588;62.368;25.902;2023-07-13T05:16:15;60.90;;;58.28;;
14984;SDS011;7588;62.368;25.902;2023-07-13T05:18:41;57.40;;;55.00;;
14984;SDS011;7588;62.368;25.902;2023-07-13T05:21:07;52.47;;;50.10;;
14984;SDS011;7588;62.368;25.902;2023-07-13T05:23:34;55.42;;;53.08;;
14984;SDS011;7588;62.368;25.902;2023-07-13T05:26:01;58.13;;;55.60;;
14984;SDS011;7588;62.368;25.902;2023-07-13T05:28:28;58.22;;;55.92;;
14984;SDS011;7588;62.368;25.902;2023-07-13T05:30:55;65.47;;;62.75;;
14984;SDS011;7588;62.368;25.902;2023-07-13T05:33:21;52.72;;;50.63;;
14984;SDS011;7588;62.368;25.902;2023-07-13T05:35:47;56.13;;;53.78;;
14984;SDS011;7588;62.368;25.902;2023-07-13T05:38:12;51.17;;;49.13;;
14984;SDS011;7588;62.368;25.902;2023-07-13T05:40:38;62.25;;;59.80;;
14984;SDS011;7588;62.368;25.902;2023-07-13T05:43:04;82.70;;;79.53;;
14984;SDS011;7588;62.368;25.902;2023-07-13T05:45:30;71.70;;;68.93;;
14984;SDS011;7588;62.368;25.902;2023-07-13T05:47:56;75.03;;;72.18;;
14984;SDS011;7588;62.368;25.902;2023-07-13T05:50:21;54.53;;;52.42;;
14984;SDS011;7588;62.368;25.902;2023-07-13T05:52:47;28.25;;;27.13;;
14984;SDS011;7588;62.368;25.902;2023-07-13T05:55:13;26.05;;;25.00;;
14984;SDS011;7588;62.368;25.902;2023-07-13T05:57:39;19.30;;;18.50;;
14984;SDS011;7588;62.368;25.902;2023-07-13T06:00:05;21.15;;;20.17;;
14984;SDS011;7588;62.368;25.902;2023-07-13T06:02:31;19.73;;;18.90;;
14984;SDS011;7588;62.368;25.902;2023-07-13T06:04:57;21.60;;;20.70;;
14984;SDS011;7588;62.368;25.902;2023-07-13T06:07:23;24.30;;;23.33;;
14984;SDS011;7588;62.368;25.902;2023-07-13T06:09:49;23.20;;;22.20;;
14984;SDS011;7588;62.368;25.902;2023-07-13T06:12:14;29.95;;;28.63;;
14984;SDS011;7588;62.368;25.902;2023-07-13T06:14:40;39.55;;;37.83;;
14984;SDS011;7588;62.368;25.902;2023-07-13T06:17:07;42.53;;;40.63;;
14984;SDS011;7588;62.368;25.902;2023-07-13T06:19:33;54.53;;;52.40;;
14984;SDS011;7588;62.368;25.902;2023-07-13T06:21:59;55.13;;;53.05;;
14984;SDS011;7588;62.368;25.902;2023-07-13T06:24:25;66.75;;;64.20;;
14984;SDS011;7588;62.368;25.902;2023-07-13T06:26:51;74.75;;;71.80;;
14984;SDS011;7588;62.368;25.902;2023-07-13T06:29:17;72.95;;;70.15;;
14984;SDS011;7588;62.368;25.902;2023-07-13T06:31:43;70.55;;;67.80;;
14984;SDS011;7588;62.368;25.902;2023-07-13T06:34:09;79.85;;;76.75;;
14984;SDS011;7588;62.368;25.902;2023-07-13T06:36:34;77.50;;;74.53;;
14984;SDS011;7588;62.368;25.902;2023-07-13T06:39:01;64.13;;;61.65;;
14984;SDS011;7588;62.368;25.902;2023-07-13T06:41:27;42.42;;;40.47;;
14984;SDS011;7588;62.368;25.902;2023-07-13T06:43:53;43.88;;;42.17;;
14984;SDS011;7588;62.368;25.902;2023-07-13T06:46:22;37.38;;;35.83;;
14984;SDS011;7588;62.368;25.902;2023-07-13T06:48:48;29.67;;;28.48;;
14984;SDS011;7588;62.368;25.902;2023-07-13T06:51:15;36.55;;;34.92;;
14984;SDS011;7588;62.368;25.902;2023-07-13T06:53:41;32.78;;;31.35;;
14984;SDS011;7588;62.368;25.902;2023-07-13T06:56:08;29.35;;;28.25;;
14984;SDS011;7588;62.368;25.902;2023-07-13T06:58:35;26.80;;;25.75;;
14984;SDS011;7588;62.368;25.902;2023-07-13T07:01:02;20.42;;;19.63;;
14984;SDS011;7588;62.368;25.902;2023-07-13T07:03:28;24.90;;;23.88;;
14984;SDS011;7588;62.368;25.902;2023-07-13T07:05:54;25.52;;;24.52;;
14984;SDS011;7588;62.368;25.902;2023-07-13T07:08:25;23.13;;;22.23;;
14984;SDS011;7588;62.368;25.902;2023-07-13T07:10:51;24.27;;;23.27;;
14984;SDS011;7588;62.368;25.902;2023-07-13T07:13:19;19.05;;;18.15;;
14984;SDS011;7588;62.368;25.902;2023-07-13T07:15:45;12.40;;;11.80;;
14984;SDS011;7588;62.368;25.902;2023-07-13T07:18:11;13.40;;;12.60;;
14984;SDS011;7588;62.368;25.902;2023-07-13T07:20:36;12.65;;;12.02;;
14984;SDS011;7588;62.368;25.902;2023-07-13T07:23:02;12.60;;;12.00;;
14984;SDS011;7588;62.368;25.902;2023-07-13T07:25:28;10.10;;;9.70;;
14984;SDS011;7588;62.368;25.902;2023-07-13T07:27:57;10.68;;;10.18;;
14984;SDS011;7588;62.368;25.902;2023-07-13T07:30:23;12.52;;;11.98;;
14984;SDS011;7588;62.368;25.902;2023-07-13T07:32:49;9.50;;;9.10;;
14984;SDS011;7588;62.368;25.902;2023-07-13T07:35:15;6.13;;;5.82;;
14984;SDS011;7588;62.368;25.902;2023-07-13T07:37:40;6.85;;;6.55;;
14984;SDS011;7588;62.368;25.902;2023-07-13T07:40:07;7.82;;;7.43;;
14984;SDS011;7588;62.368;25.902;2023-07-13T07:42:33;6.93;;;6.63;;
14984;SDS011;7588;62.368;25.902;2023-07-13T07:44:59;5.70;;;5.35;;
14984;SDS011;7588;62.368;25.902;2023-07-13T07:47:26;17.27;;;16.55;;
14984;SDS011;7588;62.368;25.902;2023-07-13T07:49:52;7.80;;;7.40;;
14984;SDS011;7588;62.368;25.902;2023-07-13T07:52:18;7.07;;;6.60;;
14984;SDS011;7588;62.368;25.902;2023-07-13T07:54:43;5.68;;;5.38;;
14984;SDS011;7588;62.368;25.902;2023-07-13T07:57:09;5.43;;;5.10;;
14984;SDS011;7588;62.368;25.902;2023-07-13T07:59:36;5.88;;;5.53;;
14984;SDS011;7588;62.368;25.902;2023-07-13T08:02:03;31.60;;;30.20;;
14984;SDS011;7588;62.368;25.902;2023-07-13T08:04:29;4.40;;;4.20;;
14984;SDS011;7588;62.368;25.902;2023-07-13T08:06:54;5.15;;;4.95;;
14984;SDS011;7588;62.368;25.902;2023-07-13T08:09:21;4.43;;;4.22;;
14984;SDS011;7588;62.368;25.902;2023-07-13T08:11:47;4.88;;;4.57;;
14984;SDS011;7588;62.368;25.902;2023-07-13T08:14:13;4.45;;;4.18;;
14984;SDS011;7588;62.368;25.902;2023-07-13T08:16:40;4.82;;;4.60;;
14984;SDS011;7588;62.368;25.902;2023-07-13T08:19:06;5.18;;;4.88;;
14984;SDS011;7588;62.368;25.902;2023-07-13T08:21:32;5.32;;;5.10;;
14984;SDS011;7588;62.368;25.902;2023-07-13T08:23:58;5.68;;;5.32;;
14984;SDS011;7588;62.368;25.902;2023-07-13T08:26:23;5.75;;;5.45;;
14984;SDS011;7588;62.368;25.902;2023-07-13T08:28:50;5.72;;;5.32;;
14984;SDS011;7588;62.368;25.902;2023-07-13T08:31:15;4.13;;;3.92;;
14984;SDS011;7588;62.368;25.902;2023-07-13T08:33:41;5.97;;;5.68;;
14984;SDS011;7588;62.368;25.902;2023-07-13T08:36:07;5.20;;;4.90;;
14984;SDS011;7588;62.368;25.902;2023-07-13T08:38:33;5.65;;;5.35;;
14984;SDS011;7588;62.368;25.902;2023-07-13T08:40:59;4.18;;;3.97;;
14984;SDS011;7588;62.368;25.902;2023-07-13T08:43:30;5.13;;;4.93;;
14984;SDS011;7588;62.368;25.902;2023-07-13T08:48:53;5.85;;;5.65;;
14984;SDS011;7588;62.368;25.902;2023-07-13T08:51:34;5.45;;;5.25;;
14984;SDS011;7588;62.368;25.902;2023-07-13T08:57:05;5.03;;;4.75;;
14984;SDS011;7588;62.368;25.902;2023-07-13T08:59:44;6.70;;;6.40;;
14984;SDS011;7588;62.368;25.902;2023-07-13T09:15:05;4.72;;;4.38;;
14984;SDS011;7588;62.368;25.902;2023-07-13T09:17:44;4.15;;;3.95;;
14984;SDS011;7588;62.368;25.902;2023-07-13T09:20:23;4.22;;;4.00;;
14984;SDS011;7588;62.368;25.902;2023-07-13T09:23:11;4.95;;;4.75;;
14984;SDS011;7588;62.368;25.902;2023-07-13T09:25:40;6.88;;;6.57;;
14984;SDS011;7588;62.368;25.902;2023-07-13T09:28:16;5.95;;;5.57;;
14984;SDS011;7588;62.368;25.902;2023-07-13T09:33:25;5.32;;;5.03;;
14984;SDS011;7588;62.368;25.902;2023-07-13T09:35:54;5.63;;;5.38;;
14984;SDS011;7588;62.368;25.902;2023-07-13T09:38:22;5.15;;;4.95;;
14984;SDS011;7588;62.368;25.902;2023-07-13T09:43:26;5.22;;;4.95;;
14984;SDS011;7588;62.368;25.902;2023-07-13T09:45:55;4.57;;;4.38;;
14984;SDS011;7588;62.368;25.902;2023-07-13T09:48:21;6.47;;;6.18;;
14984;SDS011;7588;62.368;25.902;2023-07-13T09:50:47;4.13;;;3.92;;
14984;SDS011;7588;62.368;25.902;2023-07-13T09:55:40;4.68;;;4.38;;
14984;SDS011;7588;62.368;25.902;2023-07-13T09:58:24;4.53;;;4.32;;
14984;SDS011;7588;62.368;25.902;2023-07-13T10:00:55;3.78;;;3.47;;
14984;SDS011;7588;62.368;25.902;2023-07-13T10:03:27;4.32;;;4.13;;
14984;SDS011;7588;62.368;25.902;2023-07-13T10:06:03;3.67;;;3.47;;
14984;SDS011;7588;62.368;25.902;2023-07-13T10:08:36;3.70;;;3.50;;
14984;SDS011;7588;62.368;25.902;2023-07-13T10:14:02;3.55;;;3.35;;
14984;SDS011;7588;62.368;25.902;2023-07-13T10:16:36;3.88;;;3.65;;
14984;SDS011;7588;62.368;25.902;2023-07-13T10:19:06;3.67;;;3.38;;
14984;SDS011;7588;62.368;25.902;2023-07-13T10:21:53;3.67;;;3.10;;
14984;SDS011;7588;62.368;25.902;2023-07-13T10:24:26;3.03;;;2.83;;
14984;SDS011;7588;62.368;25.902;2023-07-13T10:27:04;3.20;;;2.92;;
14984;SDS011;7588;62.368;25.902;2023-07-13T10:29:45;3.28;;;2.97;;
14984;SDS011;7588;62.368;25.902;2023-07-13T10:32:13;2.95;;;2.83;;
14984;SDS011;7588;62.368;25.902;2023-07-13T10:34:40;2.60;;;2.42;;
14984;SDS011;7588;62.368;25.902;2023-07-13T10:37:15;2.75;;;2.65;;
14984;SDS011;7588;62.368;25.902;2023-07-13T10:39:45;2.83;;;2.67;;
14984;SDS011;7588;62.368;25.902;2023-07-13T10:42:14;3.05;;;2.85;;
14984;SDS011;7588;62.368;25.902;2023-07-13T10:44:47;3.25;;;3.05;;
14984;SDS011;7588;62.368;25.902;2023-07-13T10:47:13;2.35;;;2.25;;
14984;SDS011;7588;62.368;25.902;2023-07-13T10:49:43;3.60;;;3.30;;
14984;SDS011;7588;62.368;25.902;2023-07-13T10:55:02;2.67;;;2.47;;
14984;SDS011;7588;62.368;25.902;2023-07-13T10:57:28;2.70;;;2.50;;
14984;SDS011;7588;62.368;25.902;2023-07-13T11:02:42;2.75;;;2.58;;
14984;SDS011;7588;62.368;25.902;2023-07-13T11:07:56;2.75;;;2.55;;
14984;SDS011;7588;62.368;25.902;2023-07-13T11:10:56;2.80;;;2.70;;
14984;SDS011;7588;62.368;25.902;2023-07-13T11:21:19;2.53;;;2.38;;
14984;SDS011;7588;62.368;25.902;2023-07-13T11:23:51;2.60;;;2.50;;
14984;SDS011;7588;62.368;25.902;2023-07-13T11:26:37;2.55;;;2.45;;
14984;SDS011;7588;62.368;25.902;2023-07-13T11:31:58;2.70;;;2.50;;
14984;SDS011;7588;62.368;25.902;2023-07-13T11:36:51;2.95;;;2.35;;
14984;SDS011;7588;62.368;25.902;2023-07-13T11:39:19;2.50;;;2.30;;
14984;SDS011;7588;62.368;25.902;2023-07-13T11:41:50;2.67;;;2.47;;
14984;SDS011;7588;62.368;25.902;2023-07-13T11:44:22;2.58;;;2.47;;
14984;SDS011;7588;62.368;25.902;2023-07-13T11:46:53;2.58;;;2.47;;
14984;SDS011;7588;62.368;25.902;2023-07-13T11:49:24;2.55;;;2.35;;
14984;SDS011;7588;62.368;25.902;2023-07-13T11:51:52;5.03;;;2.78;;
14984;SDS011;7588;62.368;25.902;2023-07-13T11:57:01;2.45;;;2.25;;
14984;SDS011;7588;62.368;25.902;2023-07-13T11:59:37;3.10;;;2.95;;
14984;SDS011;7588;62.368;25.902;2023-07-13T12:02:08;2.45;;;2.35;;
14984;SDS011;7588;62.368;25.902;2023-07-13T12:04:42;2.35;;;2.15;;
14984;SDS011;7588;62.368;25.902;2023-07-13T12:07:16;2.33;;;2.22;;
14984;SDS011;7588;62.368;25.902;2023-07-13T12:09:43;3.13;;;2.92;;
14984;SDS011;7588;62.368;25.902;2023-07-13T12:12:10;2.80;;;2.60;;
14984;SDS011;7588;62.368;25.902;2023-07-13T12:14:42;2.95;;;2.75;;
14984;SDS011;7588;62.368;25.902;2023-07-13T12:17:19;2.28;;;2.17;;
14984;SDS011;7588;62.368;25.902;2023-07-13T12:19:48;2.35;;;2.15;;
14984;SDS011;7588;62.368;25.902;2023-07-13T12:22:16;2.60;;;2.40;;
14984;SDS011;7588;62.368;25.902;2023-07-13T12:24:43;2.90;;;2.70;;
14984;SDS011;7588;62.368;25.902;2023-07-13T12:27:16;3.58;;;2.38;;
14984;SDS011;7588;62.368;25.902;2023-07-13T12:29:52;2.80;;;2.60;;
14984;SDS011;7588;62.368;25.902;2023-07-13T12:32:30;2.45;;;2.33;;
14984;SDS011;7588;62.368;25.902;2023-07-13T12:35:12;2.42;;;2.22;;
14984;SDS011;7588;62.368;25.902;2023-07-13T12:37:43;3.03;;;2.35;;
14984;SDS011;7588;62.368;25.902;2023-07-13T12:40:17;2.10;;;2.00;;
14984;SDS011;7588;62.368;25.902;2023-07-13T12:42:46;2.40;;;2.25;;
14984;SDS011;7588;62.368;25.902;2023-07-13T12:45:21;2.72;;;2.53;;
14984;SDS011;7588;62.368;25.902;2023-07-13T12:47:52;2.63;;;2.53;;
14984;SDS011;7588;62.368;25.902;2023-07-13T12:50:21;2.58;;;2.38;;
14984;SDS011;7588;62.368;25.902;2023-07-13T12:52:53;2.45;;;2.25;;
14984;SDS011;7588;62.368;25.902;2023-07-13T12:55:39;2.58;;;2.38;;
14984;SDS011;7588;62.368;25.902;2023-07-13T12:58:17;2.88;;;2.60;;
14984;SDS011;7588;62.368;25.902;2023-07-13T13:00:51;3.22;;;3.03;;
14984;SDS011;7588;62.368;25.902;2023-07-13T13:03:21;3.30;;;3.08;;
14984;SDS011;7588;62.368;25.902;2023-07-13T13:05:48;2.97;;;2.72;;
14984;SDS011;7588;62.368;25.902;2023-07-13T13:08:14;2.63;;;2.53;;
14984;SDS011;7588;62.368;25.902;2023-07-13T13:10:40;2.53;;;2.33;;
14984;SDS011;7588;62.368;25.902;2023-07-13T13:13:06;3.03;;;2.83;;
14984;SDS011;7588;62.368;25.902;2023-07-13T13:15:33;2.92;;;2.72;;
14984;SDS011;7588;62.368;25.902;2023-07-13T13:18:01;3.63;;;2.78;;
14984;SDS011;7588;62.368;25.902;2023-07-13T13:20:26;3.35;;;2.50;;
14984;SDS011;7588;62.368;25.902;2023-07-13T13:22:52;2.58;;;2.40;;
14984;SDS011;7588;62.368;25.902;2023-07-13T13:25:19;2.65;;;2.45;;
14984;SDS011;7588;62.368;25.902;2023-07-13T13:27:45;2.53;;;2.33;;
14984;SDS011;7588;62.368;25.902;2023-07-13T13:30:15;3.95;;;3.60;;
14984;SDS011;7588;62.368;25.902;2023-07-13T13:32:43;3.63;;;3.42;;
14984;SDS011;7588;62.368;25.902;2023-07-13T13:35:19;3.53;;;3.10;;
14984;SDS011;7588;62.368;25.902;2023-07-13T13:37:46;3.33;;;3.03;;
14984;SDS011;7588;62.368;25.902;2023-07-13T13:40:20;3.40;;;3.20;;
14984;SDS011;7588;62.368;25.902;2023-07-13T13:42:52;3.97;;;3.65;;
14984;SDS011;7588;62.368;25.902;2023-07-13T13:45:21;3.72;;;3.53;;
14984;SDS011;7588;62.368;25.902;2023-07-13T13:47:49;4.32;;;4.13;;
14984;SDS011;7588;62.368;25.902;2023-07-13T13:50:15;5.60;;;5.38;;
14984;SDS011;7588;62.368;25.902;2023-07-13T13:52:44;5.18;;;4.90;;
14984;SDS011;7588;62.368;25.902;2023-07-13T13:55:20;6.53;;;6.15;;
14984;SDS011;7588;62.368;25.902;2023-07-13T13:57:49;6.88;;;6.47;;
14984;SDS011;7588;62.368;25.902;2023-07-13T14:00:15;6.40;;;6.00;;
14984;SDS011;7588;62.368;25.902;2023-07-13T14:02:44;6.93;;;6.53;;
14984;SDS011;7588;62.368;25.902;2023-07-13T14:05:21;6.95;;;6.65;;
14984;SDS011;7588;62.368;25.902;2023-07-13T14:07:48;6.90;;;6.55;;
14984;SDS011;7588;62.368;25.902;2023-07-13T14:10:15;7.05;;;6.55;;
14984;SDS011;7588;62.368;25.902;2023-07-13T14:12:44;7.80;;;7.40;;
14984;SDS011;7588;62.368;25.902;2023-07-13T14:15:26;6.90;;;6.40;;
14984;SDS011;7588;62.368;25.902;2023-07-13T14:17:53;7.28;;;6.60;;
14984;SDS011;7588;62.368;25.902;2023-07-13T14:20:20;7.50;;;7.10;;
14984;SDS011;7588;62.368;25.902;2023-07-13T14:22:48;6.88;;;6.57;;
14984;SDS011;7588;62.368;25.902;2023-07-13T14:25:15;9.27;;;8.77;;
14984;SDS011;7588;62.368;25.902;2023-07-13T14:27:43;8.35;;;7.95;;
14984;SDS011;7588;62.368;25.902;2023-07-13T14:30:13;8.93;;;8.43;;
14984;SDS011;7588;62.368;25.902;2023-07-13T14:32:39;8.68;;;8.20;;
14984;SDS011;7588;62.368;25.902;2023-07-13T14:35:05;8.40;;;8.00;;
14984;SDS011;7588;62.368;25.902;2023-07-13T14:37:33;8.40;;;8.00;;
14984;SDS011;7588;62.368;25.902;2023-07-13T14:39:59;10.27;;;9.77;;
14984;SDS011;7588;62.368;25.902;2023-07-13T14:42:25;9.73;;;9.27;;
14984;SDS011;7588;62.368;25.902;2023-07-13T14:44:51;9.70;;;9.20;;
14984;SDS011;7588;62.368;25.902;2023-07-13T14:47:16;8.68;;;8.18;;
14984;SDS011;7588;62.368;25.902;2023-07-13T14:49:43;9.40;;;8.88;;
14984;SDS011;7588;62.368;25.902;2023-07-13T14:52:19;12.10;;;11.40;;
14984;SDS011;7588;62.368;25.902;2023-07-13T14:54:47;11.57;;;10.88;;
14984;SDS011;7588;62.368;25.902;2023-07-13T14:57:14;9.75;;;9.25;;
14984;SDS011;7588;62.368;25.902;2023-07-13T14:59:44;9.90;;;9.40;;
14984;SDS011;7588;62.368;25.902;2023-07-13T15:04:57;9.48;;;9.07;;
14984;SDS011;7588;62.368;25.902;2023-07-13T15:07:23;9.90;;;9.40;;
14984;SDS011;7588;62.368;25.902;2023-07-13T15:09:49;11.05;;;10.55;;
14984;SDS011;7588;62.368;25.902;2023-07-13T15:12:16;11.18;;;10.65;;
14984;SDS011;7588;62.368;25.902;2023-07-13T15:14:42;9.90;;;9.45;;
14984;SDS011;7588;62.368;25.902;2023-07-13T15:20:04;11.90;;;11.40;;
14984;SDS011;7588;62.368;25.902;2023-07-13T15:22:41;10.68;;;10.18;;
14984;SDS011;7588;62.368;25.902;2023-07-13T15:25:11;12.05;;;11.52;;
14984;SDS011;7588;62.368;25.902;2023-07-13T15:27:43;11.02;;;10.48;;
14984;SDS011;7588;62.368;25.902;2023-07-13T15:30:09;13.05;;;12.45;;